createdAt,value
2023-05-05T00:01:03.445Z,98243.73
2023-05-05T00:03:35.694Z,98243.05
2023-05-05T00:06:05.690Z,98244.63
2023-05-05T00:08:34.096Z,98248.46
2023-05-05T00:11:02.095Z,98251.23
2023-05-05T00:13:30.153Z,98252.29
2023-05-05T00:15:58.225Z,98247.44
2023-05-05T00:18:26.392Z,98246.30
2023-05-05T00:20:54.461Z,98248.19
2023-05-05T00:23:22.744Z,98245.17
2023-05-05T00:25:51.324Z,98243.67
2023-05-05T00:28:19.398Z,98244.24
2023-05-05T00:30:47.526Z,98246.20
2023-05-05T00:33:15.972Z,98249.92
2023-05-05T00:35:44.129Z,98251.27
2023-05-05T00:38:12.817Z,98249.96
2023-05-05T00:40:41.195Z,98249.99
2023-05-05T00:43:09.268Z,98248.40
2023-05-05T00:45:39.284Z,98247.27
2023-05-05T00:48:07.621Z,98248.85
2023-05-05T00:50:37.473Z,98248.77
2023-05-05T00:53:07.450Z,98248.65
2023-05-05T00:55:36.803Z,98248.33
2023-05-05T00:58:04.972Z,98247.17
2023-05-05T01:00:33.655Z,98239.20
2023-05-05T01:03:01.711Z,98239.25
2023-05-05T01:05:38.162Z,98236.70
2023-05-05T01:08:06.058Z,98236.58
2023-05-05T01:10:51.950Z,98235.91
2023-05-05T01:13:22.712Z,98237.57
2023-05-05T01:15:57.149Z,98236.41
2023-05-05T01:18:47.921Z,98237.39
2023-05-05T01:21:29.456Z,98236.24
2023-05-05T01:24:11.520Z,98234.79
2023-05-05T01:27:12.030Z,98236.91
2023-05-05T01:29:58.946Z,98238.45
2023-05-05T01:32:28.693Z,98239.02
2023-05-05T01:35:22.744Z,98240.07
2023-05-05T01:38:08.852Z,98239.34
2023-05-05T01:40:42.530Z,98237.86
2023-05-05T01:43:13.582Z,98236.06
2023-05-05T01:45:43.956Z,98233.08
2023-05-05T01:48:15.140Z,98228.86
2023-05-05T01:50:46.668Z,98230.20
2023-05-05T01:53:17.665Z,98225.07
2023-05-05T01:55:48.982Z,98224.96
2023-05-05T01:58:18.420Z,98227.81
2023-05-05T02:00:47.275Z,98227.19
2023-05-05T02:03:17.451Z,98227.05
2023-05-05T02:05:48.138Z,98226.83
2023-05-05T02:08:17.081Z,98224.80
2023-05-05T02:10:45.905Z,98223.55
2023-05-05T02:13:15.648Z,98222.86
2023-05-05T02:15:45.032Z,98220.19
2023-05-05T02:18:14.749Z,98212.52
2023-05-05T02:20:43.268Z,98210.96
2023-05-05T02:23:11.753Z,98207.06
2023-05-05T02:25:49.250Z,98208.05
2023-05-05T02:28:26.778Z,98203.73
2023-05-05T02:30:59.581Z,98202.70
2023-05-05T02:33:33.098Z,98202.46
2023-05-05T02:36:22.782Z,98204.98
2023-05-05T02:38:58.988Z,98208.87
2023-05-05T02:41:29.204Z,98211.04
2023-05-05T02:43:59.722Z,98212.30
2023-05-05T02:46:29.001Z,98210.86
2023-05-05T02:48:59.738Z,98215.00
2023-05-05T02:51:28.878Z,98217.79
2023-05-05T02:53:58.922Z,98220.58
2023-05-05T02:56:36.307Z,98221.25
2023-05-05T02:59:36.758Z,98220.29
2023-05-05T03:02:16.582Z,98220.52
2023-05-05T03:04:54.979Z,98225.58
2023-05-05T03:07:34.612Z,98227.83
2023-05-05T03:10:09.884Z,98228.40
2023-05-05T03:13:02.459Z,98226.71
2023-05-05T03:15:51.662Z,98226.34
2023-05-05T03:18:22.780Z,98226.06
2023-05-05T03:20:57.271Z,98231.22
2023-05-05T03:23:25.464Z,98233.61
2023-05-05T03:25:57.323Z,98238.02
2023-05-05T03:28:43.490Z,98241.25
2023-05-05T03:31:28.590Z,98242.81
2023-05-05T03:33:59.294Z,98241.73
2023-05-05T03:36:30.434Z,98248.29
2023-05-05T03:38:59.037Z,98248.72
2023-05-05T03:41:28.424Z,98244.45
2023-05-05T03:43:56.571Z,98245.20
2023-05-05T03:46:25.785Z,98245.56
2023-05-05T03:48:57.116Z,98249.08
2023-05-05T03:51:25.830Z,98253.55
2023-05-05T03:53:54.267Z,98256.29
2023-05-05T03:56:23.506Z,98261.19
2023-05-05T03:58:52.718Z,98262.27
2023-05-05T04:01:20.876Z,98259.75
2023-05-05T04:03:49.180Z,98260.69
2023-05-05T04:06:17.437Z,98265.27
2023-05-05T04:08:45.821Z,98264.25
2023-05-05T04:11:13.893Z,98268.30
2023-05-05T04:13:42.269Z,98270.55
2023-05-05T04:16:10.487Z,98265.52
2023-05-05T04:18:39.435Z,98263.82
2023-05-05T04:21:07.718Z,98267.27
2023-05-05T04:23:35.750Z,98272.13
2023-05-05T04:26:03.779Z,98273.02
2023-05-05T04:28:32.285Z,98275.09
2023-05-05T04:31:01.341Z,98278.78
2023-05-05T04:33:31.263Z,98279.41
2023-05-05T04:35:59.763Z,98281.91
2023-05-05T04:38:28.583Z,98283.02
2023-05-05T04:40:57.199Z,98282.01
2023-05-05T04:43:25.693Z,98284.55
2023-05-05T04:45:57.034Z,98283.44
2023-05-05T04:48:28.191Z,98286.80
2023-05-05T04:50:56.238Z,98288.08
2023-05-05T04:53:24.900Z,98287.03
2023-05-05T04:55:53.417Z,98285.83
2023-05-05T04:58:21.590Z,98287.01
2023-05-05T05:00:49.762Z,98287.41
2023-05-05T05:03:17.946Z,98285.69
2023-05-05T05:05:46.209Z,98288.61
2023-05-05T05:08:17.990Z,98292.80
2023-05-05T05:10:46.154Z,98293.20
2023-05-05T05:13:14.263Z,98295.08
2023-05-05T05:15:42.551Z,98298.34
2023-05-05T05:18:10.675Z,98298.79
2023-05-05T05:20:39.563Z,98302.96
2023-05-05T05:23:07.678Z,98302.00
2023-05-05T05:25:38.065Z,98304.15
2023-05-05T05:28:10.544Z,98309.98
2023-05-05T05:30:43.774Z,98312.79
2023-05-05T05:33:12.398Z,98316.30
2023-05-05T05:35:40.639Z,98318.56
2023-05-05T05:38:09.297Z,98316.95
2023-05-05T05:40:37.427Z,98316.11
2023-05-05T05:43:05.833Z,98318.27
2023-05-05T05:45:34.308Z,98315.85
2023-05-05T05:48:03.573Z,98315.64
2023-05-05T05:50:32.495Z,98314.48
2023-05-05T05:53:00.877Z,98312.76
2023-05-05T05:55:29.371Z,98315.73
2023-05-05T05:57:58.155Z,98318.89
2023-05-05T06:00:27.234Z,98320.44
2023-05-05T06:02:59.862Z,98320.39
2023-05-05T06:05:31.456Z,98320.76
2023-05-05T06:07:59.853Z,98323.38
2023-05-05T06:10:28.690Z,98327.39
2023-05-05T06:13:03.162Z,98328.02
2023-05-05T06:15:31.946Z,98323.83
2023-05-05T06:18:00.769Z,98320.95
2023-05-05T06:20:29.041Z,98320.67
2023-05-05T06:22:57.288Z,98319.58
2023-05-05T06:25:26.495Z,98317.64
2023-05-05T06:27:54.445Z,98315.06
2023-05-05T06:30:22.366Z,98312.87
2023-05-05T06:32:50.666Z,98314.75
2023-05-05T06:35:18.630Z,98316.65
2023-05-05T06:37:46.649Z,98314.98
2023-05-05T06:40:15.094Z,98313.56
2023-05-05T06:42:43.055Z,98313.28
2023-05-05T06:45:12.790Z,98312.21
2023-05-05T06:47:42.011Z,98317.55
2023-05-05T06:50:10.587Z,98318.77
2023-05-05T06:52:38.794Z,98318.86
2023-05-05T06:55:07.664Z,98316.92
2023-05-05T06:57:35.847Z,98316.20
2023-05-05T07:00:06.062Z,98314.79
2023-05-05T07:02:34.359Z,98311.91
2023-05-05T07:05:03.323Z,98315.88
2023-05-05T07:07:32.663Z,98313.62
2023-05-05T07:10:01.181Z,98310.02
2023-05-05T07:12:33.653Z,98310.66
2023-05-05T07:15:09.351Z,98306.16
2023-05-05T07:17:44.682Z,98307.18
2023-05-05T07:20:13.095Z,98308.58
2023-05-05T07:22:41.232Z,98309.27
2023-05-05T07:25:09.484Z,98307.77
2023-05-05T07:27:37.948Z,98307.91
2023-05-05T07:30:11.159Z,98307.27
2023-05-05T07:32:41.409Z,98304.48
2023-05-05T07:35:09.640Z,98299.65
2023-05-05T07:37:37.757Z,98297.90
2023-05-05T07:40:07.153Z,98301.83
2023-05-05T07:42:35.511Z,98303.27
2023-05-05T07:45:04.896Z,98301.31
2023-05-05T07:47:33.175Z,98301.77
2023-05-05T07:50:01.792Z,98300.24
2023-05-05T07:52:44.122Z,98300.20
2023-05-05T07:55:14.517Z,98302.71
2023-05-05T07:57:42.699Z,98304.26
2023-05-05T08:00:13.418Z,98304.75
2023-05-05T08:02:41.967Z,98304.78
2023-05-05T08:05:10.332Z,98302.98
2023-05-05T08:07:41.465Z,98301.50
2023-05-05T08:10:13.198Z,98303.43
2023-05-05T08:12:41.182Z,98302.38
2023-05-05T08:15:10.147Z,98303.63
2023-05-05T08:17:49.281Z,98304.47
2023-05-05T08:20:19.402Z,98304.61
2023-05-05T08:22:47.702Z,98306.86
2023-05-05T08:25:15.779Z,98299.92
2023-05-05T08:27:44.960Z,98299.65
2023-05-05T08:30:13.592Z,98297.50
2023-05-05T08:32:41.860Z,98295.62
2023-05-05T08:35:10.960Z,98292.45
2023-05-05T08:37:39.401Z,98293.80
2023-05-05T08:40:08.609Z,98295.55
2023-05-05T08:42:38.628Z,98294.66
2023-05-05T08:45:09.738Z,98293.86
2023-05-05T08:47:39.589Z,98294.43
2023-05-05T08:50:10.543Z,98295.67
2023-05-05T08:52:41.465Z,98295.90
2023-05-05T08:55:27.458Z,98300.35
2023-05-05T08:57:57.925Z,98303.25
2023-05-05T09:00:27.327Z,98303.69
2023-05-05T09:03:00.128Z,98301.17
2023-05-05T09:05:28.438Z,98299.05
2023-05-05T09:07:56.596Z,98293.84
2023-05-05T09:10:26.320Z,98284.92
2023-05-05T09:12:54.493Z,98284.15
2023-05-05T09:15:22.763Z,98279.13
2023-05-05T09:17:51.240Z,98281.45
2023-05-05T09:20:19.415Z,98276.67
2023-05-05T09:22:48.301Z,98279.04
2023-05-05T09:25:18.529Z,98276.97
2023-05-05T09:27:49.258Z,98277.19
2023-05-05T09:30:23.404Z,98275.33
2023-05-05T09:32:54.113Z,98269.16
2023-05-05T09:35:23.506Z,98273.33
2023-05-05T09:37:51.501Z,98272.77
2023-05-05T09:40:20.784Z,98262.48
2023-05-05T09:42:48.955Z,98262.63
2023-05-05T09:45:19.780Z,98259.86
2023-05-05T09:47:49.715Z,98260.01
2023-05-05T09:50:19.431Z,98258.85
2023-05-05T09:53:02.698Z,98259.96
2023-05-05T09:55:33.591Z,98256.58
2023-05-05T09:58:21.461Z,98254.58
2023-05-05T10:00:50.209Z,98248.48
2023-05-05T10:03:19.481Z,98247.62
2023-05-05T10:05:50.755Z,98240.01
2023-05-05T10:08:21.163Z,98239.21
2023-05-05T10:10:53.659Z,98239.16
2023-05-05T10:13:24.407Z,98237.73
2023-05-05T10:15:55.367Z,98238.48
2023-05-05T10:18:25.919Z,98237.88
2023-05-05T10:20:59.183Z,98240.06
2023-05-05T10:23:48.067Z,98235.55
2023-05-05T10:26:19.940Z,98229.70
2023-05-05T10:28:55.259Z,98226.55
2023-05-05T10:31:37.339Z,98220.84
2023-05-05T10:34:24.282Z,98218.81
2023-05-05T10:36:55.269Z,98214.60
2023-05-05T10:39:25.216Z,98212.84
2023-05-05T10:41:53.773Z,98214.45
2023-05-05T10:44:23.083Z,98207.63
2023-05-05T10:46:51.386Z,98203.65
2023-05-05T10:49:44.932Z,98204.13
2023-05-05T10:52:43.513Z,98202.02
2023-05-05T10:55:17.813Z,98202.35
2023-05-05T10:57:46.823Z,98194.60
2023-05-05T11:00:38.015Z,98190.36
2023-05-05T11:03:18.257Z,98183.95
2023-05-05T11:06:04.897Z,98178.29
2023-05-05T11:08:33.861Z,98175.92
2023-05-05T11:11:02.811Z,98171.98
2023-05-05T11:13:31.873Z,98171.02
2023-05-05T11:16:02.259Z,98170.94
2023-05-05T11:18:36.071Z,98167.02
2023-05-05T11:21:15.803Z,98164.27
2023-05-05T11:23:49.584Z,98164.61
2023-05-05T11:26:38.734Z,98163.12
2023-05-05T11:29:06.954Z,98157.35
2023-05-05T11:31:35.196Z,98157.08
2023-05-05T11:34:28.365Z,98155.92
2023-05-05T11:37:06.366Z,98152.56
2023-05-05T11:39:56.045Z,98149.77
2023-05-05T11:42:26.116Z,98149.36
2023-05-05T11:44:55.235Z,98147.08
2023-05-05T11:47:23.301Z,98143.10
2023-05-05T11:49:51.382Z,98139.82
2023-05-05T11:52:19.664Z,98139.67
2023-05-05T11:54:49.070Z,98135.85
2023-05-05T11:57:21.754Z,98136.04
2023-05-05T12:00:09.206Z,98129.73
2023-05-05T12:02:37.475Z,98130.02
2023-05-05T12:05:06.278Z,98121.75
2023-05-05T12:07:34.511Z,98120.58
2023-05-05T12:10:02.897Z,98116.88
2023-05-05T12:12:36.220Z,98109.27
2023-05-05T12:15:05.550Z,98105.58
2023-05-05T12:17:39.067Z,98103.94
2023-05-05T12:20:08.917Z,98106.67
2023-05-05T12:22:37.546Z,98110.06
2023-05-05T12:25:08.077Z,98108.30
2023-05-05T12:27:36.478Z,98099.35
2023-05-05T12:30:13.020Z,98101.36
2023-05-05T12:32:41.645Z,98096.84
2023-05-05T12:35:10.933Z,98091.01
2023-05-05T12:37:39.326Z,98087.17
2023-05-05T12:40:09.053Z,98085.29
2023-05-05T12:42:41.306Z,98083.17
2023-05-05T12:45:19.721Z,98083.85
2023-05-05T12:47:47.746Z,98077.91
2023-05-05T12:50:29.951Z,98081.11
2023-05-05T12:52:58.272Z,98080.52
2023-05-05T12:55:40.169Z,98076.10
2023-05-05T12:58:08.240Z,98067.09
2023-05-05T13:00:36.842Z,98058.98
2023-05-05T13:03:06.295Z,98056.92
2023-05-05T13:05:41.083Z,98055.23
2023-05-05T13:08:09.154Z,98059.40
2023-05-05T13:10:37.303Z,98056.16
2023-05-05T13:13:05.814Z,98049.86
2023-05-05T13:15:34.197Z,98051.50
2023-05-05T13:18:02.897Z,98045.21
2023-05-05T13:20:31.123Z,98046.58
2023-05-05T13:22:59.225Z,98043.13
2023-05-05T13:25:27.266Z,98037.36
2023-05-05T13:27:55.344Z,98033.98
2023-05-05T13:30:23.415Z,98034.29
2023-05-05T13:32:51.603Z,98034.08
2023-05-05T13:35:19.766Z,98025.11
2023-05-05T13:37:48.467Z,98024.41
2023-05-05T13:40:16.497Z,98029.67
2023-05-05T13:42:44.543Z,98025.02
2023-05-05T13:45:14.179Z,98019.66
2023-05-05T13:47:44.474Z,98019.52
2023-05-05T13:50:12.707Z,98016.42
2023-05-05T13:52:40.691Z,98011.08
2023-05-05T13:55:09.872Z,98007.41
2023-05-05T13:57:38.051Z,98003.95
2023-05-05T14:00:06.944Z,98005.73
2023-05-05T14:02:35.864Z,98001.94
2023-05-05T14:05:04.331Z,97999.71
2023-05-05T14:07:33.108Z,97996.70
2023-05-05T14:10:01.268Z,97991.25
2023-05-05T14:12:29.339Z,97992.45
2023-05-05T14:14:57.508Z,97994.21
2023-05-05T14:17:26.032Z,97990.80
2023-05-05T14:19:54.068Z,97989.37
2023-05-05T14:22:22.141Z,97982.65
2023-05-05T14:24:50.416Z,97984.58
2023-05-05T14:27:18.425Z,97984.43
2023-05-05T14:29:46.555Z,97984.85
2023-05-05T14:32:14.664Z,97981.56
2023-05-05T14:34:42.960Z,97974.29
2023-05-05T14:37:10.936Z,97974.31
2023-05-05T14:39:38.885Z,97974.05
2023-05-05T14:42:06.924Z,97973.63
2023-05-05T14:44:35.001Z,97971.48
2023-05-05T14:47:03.194Z,97972.73
2023-05-05T14:49:31.342Z,97970.95
2023-05-05T14:51:59.303Z,97968.21
2023-05-05T14:54:28.844Z,97969.23
2023-05-05T14:56:58.472Z,97970.54
2023-05-05T14:59:27.725Z,97966.51
2023-05-05T15:01:56.659Z,97968.27
2023-05-05T15:04:24.897Z,97965.86
2023-05-05T15:06:52.962Z,97963.11
2023-05-05T15:09:21.034Z,97964.17
2023-05-05T15:11:49.100Z,97959.20
2023-05-05T15:14:17.094Z,97958.20
2023-05-05T15:16:46.820Z,97955.01
2023-05-05T15:19:14.851Z,97956.01
2023-05-05T15:21:43.473Z,97955.70
2023-05-05T15:24:11.609Z,97955.80
2023-05-05T15:26:39.549Z,97948.04
2023-05-05T15:29:07.481Z,97942.82
2023-05-05T15:31:35.580Z,97940.39
2023-05-05T15:34:03.689Z,97938.88
2023-05-05T15:36:32.377Z,97939.63
2023-05-05T15:39:00.455Z,97941.41
2023-05-05T15:41:29.587Z,97940.23
2023-05-05T15:43:58.233Z,97941.09
2023-05-05T15:46:26.491Z,97939.16
2023-05-05T15:48:54.893Z,97938.98
2023-05-05T15:51:22.822Z,97934.10
2023-05-05T15:53:52.420Z,97934.45
2023-05-05T15:56:20.514Z,97937.83
2023-05-05T15:58:48.605Z,97937.00
2023-05-05T16:01:16.781Z,97936.77
2023-05-05T16:03:44.916Z,97937.50
2023-05-05T16:06:13.338Z,97939.76
2023-05-05T16:08:41.501Z,97945.96
2023-05-05T16:11:09.682Z,97943.48
2023-05-05T16:13:39.400Z,97937.24
2023-05-05T16:16:08.038Z,97936.67
2023-05-05T16:18:36.272Z,97939.98
2023-05-05T16:21:04.643Z,97937.78
2023-05-05T16:23:33.116Z,97939.06
2023-05-05T16:26:01.504Z,97941.80
2023-05-05T16:28:30.604Z,97940.67
2023-05-05T16:30:58.746Z,97941.23
2023-05-05T16:33:27.480Z,97941.25
2023-05-05T16:35:55.950Z,97940.47
2023-05-05T16:38:24.101Z,97939.73
2023-05-05T16:40:52.166Z,97945.65
2023-05-05T16:43:20.256Z,97942.09
2023-05-05T16:45:48.439Z,97943.02
2023-05-05T16:48:18.554Z,97943.90
2023-05-05T16:50:46.814Z,97945.42
2023-05-05T16:53:14.892Z,97947.27
2023-05-05T16:55:42.828Z,97948.41
2023-05-05T16:58:10.830Z,97948.71
2023-05-05T17:00:38.913Z,97946.96
2023-05-05T17:03:07.067Z,97948.21
2023-05-05T17:05:35.141Z,97945.74
2023-05-05T17:08:03.939Z,97948.20
2023-05-05T17:10:32.016Z,97948.24
2023-05-05T17:13:00.084Z,97952.61
2023-05-05T17:15:28.252Z,97951.46
2023-05-05T17:17:56.385Z,97952.75
2023-05-05T17:20:24.804Z,97952.48
2023-05-05T17:22:52.889Z,97953.10
2023-05-05T17:25:21.180Z,97953.67
2023-05-05T17:27:49.227Z,97957.23
2023-05-05T17:30:17.813Z,97957.10
2023-05-05T17:32:47.442Z,97956.61
2023-05-05T17:35:15.490Z,97959.81
2023-05-05T17:37:43.775Z,97962.64
2023-05-05T17:40:12.049Z,97967.48
2023-05-05T17:42:40.828Z,97968.94
2023-05-05T17:45:10.016Z,97969.74
2023-05-05T17:47:38.221Z,97972.04
2023-05-05T17:50:07.173Z,97972.48
2023-05-05T17:52:35.171Z,97978.33
2023-05-05T17:55:04.138Z,97980.55
2023-05-05T17:57:32.012Z,97985.60
2023-05-05T18:00:03.364Z,97989.34
2023-05-05T18:02:40.717Z,97990.77
2023-05-05T18:05:10.026Z,97994.92
2023-05-05T18:07:38.730Z,97996.53
2023-05-05T18:10:08.348Z,98002.42
2023-05-05T18:12:37.003Z,98007.39
2023-05-05T18:15:05.816Z,98008.30
2023-05-05T18:17:33.837Z,98008.64
2023-05-05T18:20:02.021Z,98009.67
2023-05-05T18:22:30.155Z,98013.75
2023-05-05T18:25:00.135Z,98018.86
2023-05-05T18:27:29.167Z,98021.94
2023-05-05T18:29:57.260Z,98023.98
2023-05-05T18:32:25.423Z,98020.36
2023-05-05T18:34:53.526Z,98021.41
2023-05-05T18:37:21.558Z,98019.44
2023-05-05T18:39:49.932Z,98021.17
2023-05-05T18:42:18.108Z,98018.99
2023-05-05T18:44:46.192Z,98020.58
2023-05-05T18:47:14.270Z,98022.73
2023-05-05T18:49:42.346Z,98022.33
2023-05-05T18:52:10.279Z,98024.43
2023-05-05T18:54:38.226Z,98025.95
2023-05-05T18:57:06.244Z,98028.61
2023-05-05T18:59:34.133Z,98031.13
2023-05-05T19:02:03.029Z,98031.29
2023-05-05T19:04:33.027Z,98030.02
2023-05-05T19:07:01.080Z,98033.41
2023-05-05T19:09:29.157Z,98031.19
2023-05-05T19:11:57.226Z,98035.36
2023-05-05T19:14:25.318Z,98037.54
2023-05-05T19:16:55.959Z,98036.16
2023-05-05T19:19:24.299Z,98037.30
2023-05-05T19:21:52.681Z,98035.91
2023-05-05T19:24:20.747Z,98036.75
2023-05-05T19:26:49.038Z,98036.44
2023-05-05T19:29:17.260Z,98036.19
2023-05-05T19:31:45.398Z,98035.81
2023-05-05T19:34:13.452Z,98038.11
2023-05-05T19:36:41.398Z,98034.92
2023-05-05T19:39:09.489Z,98034.19
2023-05-05T19:41:37.579Z,98032.83
2023-05-05T19:44:06.145Z,98034.60
2023-05-05T19:46:34.306Z,98038.64
2023-05-05T19:49:02.422Z,98040.71
2023-05-05T19:51:31.633Z,98046.34
2023-05-05T19:53:59.969Z,98046.59
2023-05-05T19:56:28.150Z,98049.55
2023-05-05T19:59:00.887Z,98051.20
2023-05-05T20:01:29.469Z,98051.04
2023-05-05T20:03:57.999Z,98048.89
2023-05-05T20:06:27.089Z,98047.27
2023-05-05T20:08:55.678Z,98044.23
2023-05-05T20:11:25.996Z,98043.48
2023-05-05T20:13:54.492Z,98044.73
2023-05-05T20:16:22.558Z,98043.44
2023-05-05T20:18:51.238Z,98041.48
2023-05-05T20:21:19.714Z,98042.77
2023-05-05T20:23:48.093Z,98041.26
2023-05-05T20:26:16.485Z,98039.85
2023-05-05T20:28:45.865Z,98039.54
2023-05-05T20:31:14.994Z,98036.58
2023-05-05T20:33:43.049Z,98035.10
2023-05-05T20:36:11.760Z,98033.55
2023-05-05T20:38:39.913Z,98034.65
2023-05-05T20:41:07.981Z,98036.02
2023-05-05T20:43:37.049Z,98034.27
2023-05-05T20:46:05.250Z,98033.62
2023-05-05T20:48:33.422Z,98033.02
2023-05-05T20:51:04.123Z,98030.41
2023-05-05T20:53:32.693Z,98030.05
2023-05-05T20:56:01.022Z,98025.34
2023-05-05T20:58:29.674Z,98026.09
2023-05-05T21:00:58.516Z,98026.45
2023-05-05T21:03:27.043Z,98030.92
2023-05-05T21:05:55.127Z,98028.77
2023-05-05T21:08:23.221Z,98025.41
2023-05-05T21:10:51.313Z,98027.27
2023-05-05T21:13:19.719Z,98031.90
2023-05-05T21:15:47.761Z,98033.73
2023-05-05T21:18:15.997Z,98032.90
2023-05-05T21:20:43.984Z,98031.51
2023-05-05T21:23:12.064Z,98032.00
2023-05-05T21:25:40.331Z,98030.71
2023-05-05T21:28:08.615Z,98032.72
2023-05-05T21:30:36.688Z,98034.72
2023-05-05T21:33:04.705Z,98040.85
2023-05-05T21:35:32.790Z,98039.71
2023-05-05T21:38:00.910Z,98040.20
2023-05-05T21:40:28.972Z,98043.06
2023-05-05T21:42:57.056Z,98042.33
2023-05-05T21:45:25.224Z,98039.88
2023-05-05T21:47:53.350Z,98039.84
2023-05-05T21:50:21.372Z,98037.70
2023-05-05T21:52:49.300Z,98039.31
2023-05-05T21:55:17.269Z,98039.06
2023-05-05T21:57:45.391Z,98041.13
2023-05-05T22:00:16.963Z,98036.23
2023-05-05T22:02:45.619Z,98036.17
2023-05-05T22:05:13.990Z,98033.07
2023-05-05T22:07:42.073Z,98034.84
2023-05-05T22:10:10.882Z,98033.58
2023-05-05T22:12:39.130Z,98034.58
2023-05-05T22:15:08.153Z,98036.33
2023-05-05T22:17:37.062Z,98035.79
2023-05-05T22:20:06.026Z,98034.72
2023-05-05T22:22:34.599Z,98038.13
2023-05-05T22:25:02.659Z,98041.17
2023-05-05T22:27:30.736Z,98037.95
2023-05-05T22:29:58.911Z,98040.02
2023-05-05T22:32:27.215Z,98039.22
2023-05-05T22:34:55.480Z,98038.14
2023-05-05T22:37:23.655Z,98039.58
2023-05-05T22:39:51.705Z,98036.66
2023-05-05T22:42:19.632Z,98033.76
2023-05-05T22:44:47.717Z,98033.40
2023-05-05T22:47:15.740Z,98036.71
2023-05-05T22:49:43.955Z,98034.73
2023-05-05T22:52:12.571Z,98033.55
2023-05-05T22:54:40.652Z,98033.30
2023-05-05T22:57:08.720Z,98031.55
2023-05-05T22:59:36.791Z,98031.35
2023-05-05T23:02:05.506Z,98027.34
2023-05-05T23:04:33.676Z,98024.00
2023-05-05T23:07:01.930Z,98027.74
2023-05-05T23:09:29.897Z,98027.36
2023-05-05T23:11:57.865Z,98027.38
2023-05-05T23:14:26.365Z,98025.23
2023-05-05T23:16:54.469Z,98026.09
2023-05-05T23:19:22.712Z,98026.54
2023-05-05T23:21:53.616Z,98024.89
2023-05-05T23:24:22.425Z,98024.67
2023-05-05T23:26:51.901Z,98022.60
2023-05-05T23:29:21.036Z,98021.67
2023-05-05T23:31:49.022Z,98025.71
2023-05-05T23:34:17.037Z,98025.29
2023-05-05T23:36:45.040Z,98026.77
2023-05-05T23:39:13.113Z,98027.84
2023-05-05T23:41:41.083Z,98025.54
2023-05-05T23:44:09.153Z,98024.69
2023-05-05T23:46:37.149Z,98022.30
2023-05-05T23:49:05.300Z,98024.11
2023-05-05T23:51:33.338Z,98026.05
2023-05-05T23:54:01.241Z,98027.09
2023-05-05T23:56:29.299Z,98026.58
2023-05-05T23:58:57.285Z,98022.52
